Portada
METAR-TAF:

METAR-TAF

Aeropuertos :

South St. Paul Municipal Airport (Richard E. Fleming Field)

South St. Paul, Minnesota, Estados Unidos

latitud: 44-51-26N, longitud: 093-01-58W, altitud: 250 m

Observación

El informe se hizo hace 29 minutos, a las 06:56 UTC
Viento calma
Temperatura 9°C
Humedad 76%
Presión 1025 hPa
Visibilidad: 16.1 km
Cielo despejado

METAR: KSGS 310656Z AUTO 00000KT 10SM CLR 09/05 A3028 RMK AO2 T00920048

Hora: 02:25 (07:25 UTC)


TAF: falta

Observaciones y pronósticos meteorológicos de más de 4000 aeropuertos (mensajes METAR y TAF).

Los puntos amarillos y rojos representan las estaciones disponibles.

Ponga el ratón en el punto deseado para ver el nombre de la estación.

Haga clic para ver las observaciones y los pronósticos meteorológicos.

Para cambiar el mapa : haga clic en los botones verdes con una cruz de color negro para hacer un zoom, en el botón verde con un guión para alejar o en las flechas verdes para mapas adyacentes.


METAR-TAF: